createdAt,value
2017-11-26T00:00:21.665Z,991.93
2017-11-26T00:01:21.641Z,991.92
2017-11-26T00:02:21.615Z,991.94
2017-11-26T00:03:21.598Z,991.96
2017-11-26T00:04:21.565Z,991.97
2017-11-26T00:05:21.547Z,992.01
2017-11-26T00:06:21.519Z,992.02
2017-11-26T00:07:21.494Z,992.05
2017-11-26T00:08:21.469Z,992.12
2017-11-26T00:09:21.446Z,992.07
2017-11-26T00:10:21.428Z,992.11
2017-11-26T00:11:21.396Z,992.12
2017-11-26T00:12:21.367Z,992.13
2017-11-26T00:13:21.344Z,992.11
2017-11-26T00:14:21.318Z,992.11
2017-11-26T00:15:21.292Z,992.10
2017-11-26T00:16:21.270Z,992.14
2017-11-26T00:17:21.249Z,992.18
2017-11-26T00:18:21.241Z,992.18
2017-11-26T00:19:21.240Z,992.22
2017-11-26T00:20:21.170Z,992.20
2017-11-26T00:21:21.148Z,992.24
2017-11-26T00:22:21.120Z,992.24
2017-11-26T00:23:21.102Z,992.26
2017-11-26T00:24:21.072Z,992.31
2017-11-26T00:25:21.050Z,992.31
2017-11-26T00:26:21.017Z,992.30
2017-11-26T00:27:20.997Z,992.35
2017-11-26T00:28:20.972Z,992.34
2017-11-26T00:29:20.953Z,992.31
2017-11-26T00:30:20.929Z,992.34
2017-11-26T00:31:20.896Z,992.36
2017-11-26T00:32:20.872Z,992.37
2017-11-26T00:33:20.849Z,992.37
2017-11-26T00:34:20.820Z,992.37
2017-11-26T00:35:20.802Z,992.35
2017-11-26T00:36:20.775Z,992.33
2017-11-26T00:37:20.750Z,992.35
2017-11-26T00:38:20.724Z,992.32
2017-11-26T00:39:20.698Z,992.35
2017-11-26T00:40:20.673Z,992.36
2017-11-26T00:41:20.653Z,992.34
2017-11-26T00:42:20.625Z,992.32
2017-11-26T00:43:20.603Z,992.35
2017-11-26T00:44:20.578Z,992.36
2017-11-26T00:45:20.549Z,992.33
2017-11-26T00:46:20.531Z,992.31
2017-11-26T00:47:20.501Z,992.33
2017-11-26T00:48:20.479Z,992.31
2017-11-26T00:49:20.453Z,992.31
2017-11-26T00:50:20.437Z,992.29
2017-11-26T00:51:20.406Z,992.31
2017-11-26T00:52:20.389Z,992.32
2017-11-26T00:53:20.353Z,992.32
2017-11-26T00:54:20.352Z,992.31
2017-11-26T00:55:20.305Z,992.31
2017-11-26T00:56:20.329Z,992.37
2017-11-26T00:57:20.253Z,992.38
2017-11-26T00:58:20.238Z,992.40
2017-11-26T00:59:20.206Z,992.40
2017-11-26T01:00:20.186Z,992.40
2017-11-26T01:01:20.154Z,992.38
2017-11-26T01:02:20.139Z,992.37
2017-11-26T01:03:20.106Z,992.39
2017-11-26T01:04:20.089Z,992.46
2017-11-26T01:05:20.062Z,992.46
2017-11-26T01:06:20.038Z,992.50
2017-11-26T01:07:20.012Z,992.51
2017-11-26T01:08:19.986Z,992.47
2017-11-26T01:09:19.961Z,992.47
2017-11-26T01:10:19.936Z,992.50
2017-11-26T01:11:19.918Z,992.48
2017-11-26T01:12:19.884Z,992.51
2017-11-26T01:13:19.873Z,992.49
2017-11-26T01:14:19.838Z,992.49
2017-11-26T01:15:19.810Z,992.57
2017-11-26T01:16:19.790Z,992.61
2017-11-26T01:17:19.762Z,992.61
2017-11-26T01:18:19.752Z,992.60
2017-11-26T01:19:19.710Z,992.62
2017-11-26T01:20:19.684Z,992.62
2017-11-26T01:21:19.663Z,992.65
2017-11-26T01:22:19.645Z,992.65
2017-11-26T01:23:19.614Z,992.64
2017-11-26T01:24:19.584Z,992.65
2017-11-26T01:25:19.560Z,992.61
2017-11-26T01:26:19.534Z,992.62
2017-11-26T01:27:19.512Z,992.60
2017-11-26T01:28:19.488Z,992.63
2017-11-26T01:29:34.319Z,992.64
2017-11-26T01:30:19.436Z,992.67
2017-11-26T01:31:19.425Z,992.71
2017-11-26T01:32:19.420Z,992.70
2017-11-26T01:33:19.416Z,992.67
2017-11-26T01:34:19.344Z,992.69
2017-11-26T01:35:19.314Z,992.68
2017-11-26T01:36:19.292Z,992.71
2017-11-26T01:37:19.267Z,992.67
2017-11-26T01:38:19.236Z,992.71
2017-11-26T01:39:19.213Z,992.73
2017-11-26T01:40:19.188Z,992.74
2017-11-26T01:41:19.168Z,992.76
2017-11-26T01:42:19.146Z,992.78
2017-11-26T01:43:19.110Z,992.76
2017-11-26T01:44:19.087Z,992.81
2017-11-26T01:45:19.066Z,992.83
2017-11-26T01:46:19.036Z,992.79
2017-11-26T01:47:19.029Z,992.73
2017-11-26T01:48:18.986Z,992.72
2017-11-26T01:49:18.963Z,992.75
2017-11-26T01:50:18.942Z,992.73
2017-11-26T01:51:18.911Z,992.74
2017-11-26T01:52:18.886Z,992.70
2017-11-26T01:53:18.869Z,992.72
2017-11-26T01:54:18.834Z,992.74
2017-11-26T01:55:18.812Z,992.72
2017-11-26T01:56:18.786Z,992.71
2017-11-26T01:57:18.768Z,992.73
2017-11-26T01:58:18.743Z,992.75
2017-11-26T01:59:18.712Z,992.71
2017-11-26T02:00:18.688Z,992.77
2017-11-26T02:01:18.665Z,992.76
2017-11-26T02:02:18.638Z,992.79
2017-11-26T02:03:18.610Z,992.69
2017-11-26T02:04:18.586Z,992.70
2017-11-26T02:05:18.563Z,992.72
2017-11-26T02:06:18.537Z,992.70
2017-11-26T02:07:18.512Z,992.68
2017-11-26T02:08:18.490Z,992.70
2017-11-26T02:09:18.481Z,992.74
2017-11-26T02:10:18.436Z,992.73
2017-11-26T02:11:18.411Z,992.68
2017-11-26T02:12:18.388Z,992.66
2017-11-26T02:13:18.364Z,992.66
2017-11-26T02:14:18.346Z,992.70
2017-11-26T02:15:18.307Z,992.70
2017-11-26T02:16:18.298Z,992.71
2017-11-26T02:17:18.263Z,992.69
2017-11-26T02:18:18.247Z,992.68
2017-11-26T02:19:18.225Z,992.67
2017-11-26T02:20:18.190Z,992.74
2017-11-26T02:21:18.165Z,992.75
2017-11-26T02:22:18.145Z,992.72
2017-11-26T02:23:18.113Z,992.74
2017-11-26T02:24:18.088Z,992.72
2017-11-26T02:25:18.067Z,992.72
2017-11-26T02:26:18.040Z,992.75
2017-11-26T02:27:18.029Z,992.76
2017-11-26T02:28:17.992Z,992.79
2017-11-26T02:29:17.969Z,992.77
2017-11-26T02:30:17.943Z,992.79
2017-11-26T02:31:17.916Z,992.77
2017-11-26T02:32:17.896Z,992.80
2017-11-26T02:33:17.868Z,992.78
2017-11-26T02:34:17.842Z,992.81
2017-11-26T02:35:17.815Z,992.82
2017-11-26T02:36:17.790Z,992.87
2017-11-26T02:37:17.765Z,992.88
2017-11-26T02:38:17.744Z,992.91
2017-11-26T02:39:17.716Z,992.90
2017-11-26T02:40:17.706Z,992.93
2017-11-26T02:41:17.665Z,992.93
2017-11-26T02:42:17.641Z,992.88
2017-11-26T02:43:17.615Z,992.91
2017-11-26T02:44:17.596Z,992.90
2017-11-26T02:45:17.569Z,992.94
2017-11-26T02:46:17.572Z,992.97
2017-11-26T02:47:17.568Z,992.97
2017-11-26T02:48:17.507Z,992.93
2017-11-26T02:49:17.472Z,992.94
2017-11-26T02:50:17.445Z,993.00
2017-11-26T02:51:17.420Z,992.97
2017-11-26T02:52:17.398Z,993.00
2017-11-26T02:53:17.371Z,993.02
2017-11-26T02:54:17.343Z,993.04
2017-11-26T02:55:17.317Z,993.04
2017-11-26T02:56:17.296Z,993.08
2017-11-26T02:57:17.275Z,993.00
2017-11-26T02:58:17.250Z,993.06
2017-11-26T02:59:17.221Z,993.11
2017-11-26T03:00:17.199Z,993.13
2017-11-26T03:01:17.166Z,993.14
2017-11-26T03:02:17.148Z,993.11
2017-11-26T03:03:17.119Z,993.12
2017-11-26T03:04:17.092Z,993.14
2017-11-26T03:05:17.075Z,993.15
2017-11-26T03:06:17.042Z,993.18
2017-11-26T03:07:17.023Z,993.18
2017-11-26T03:08:16.999Z,993.16
2017-11-26T03:09:16.970Z,993.19
2017-11-26T03:10:16.941Z,993.16
2017-11-26T03:11:16.921Z,993.15
2017-11-26T03:12:16.893Z,993.18
2017-11-26T03:13:16.871Z,993.16
2017-11-26T03:14:16.851Z,993.19
2017-11-26T03:15:16.820Z,993.25
2017-11-26T03:16:16.798Z,993.24
2017-11-26T03:17:16.771Z,993.27
2017-11-26T03:18:16.748Z,993.33
2017-11-26T03:19:16.723Z,993.28
2017-11-26T03:20:16.696Z,993.30
2017-11-26T03:21:16.671Z,993.38
2017-11-26T03:22:16.644Z,993.37
2017-11-26T03:23:16.624Z,993.38
2017-11-26T03:24:16.601Z,993.36
2017-11-26T03:25:16.570Z,993.38
2017-11-26T03:26:16.544Z,993.40
2017-11-26T03:27:16.528Z,993.40
2017-11-26T03:28:16.498Z,993.38
2017-11-26T03:29:16.473Z,993.39
2017-11-26T03:30:16.448Z,993.40
2017-11-26T03:31:16.420Z,993.46
2017-11-26T03:32:16.397Z,993.40
2017-11-26T03:33:16.375Z,993.41
2017-11-26T03:34:16.348Z,993.43
2017-11-26T03:35:16.326Z,993.46
2017-11-26T03:36:16.297Z,993.50
2017-11-26T03:37:16.274Z,993.54
2017-11-26T03:38:16.245Z,993.48
2017-11-26T03:39:16.234Z,993.49
2017-11-26T03:40:16.201Z,993.49
2017-11-26T03:41:16.173Z,993.49
2017-11-26T03:42:16.149Z,993.53
2017-11-26T03:43:16.125Z,993.48
2017-11-26T03:44:16.097Z,993.51
2017-11-26T03:45:16.072Z,993.54
2017-11-26T03:46:16.047Z,993.57
2017-11-26T03:47:16.023Z,993.57
2017-11-26T03:48:15.997Z,993.57
2017-11-26T03:49:15.975Z,993.55
2017-11-26T03:50:15.948Z,993.54
2017-11-26T03:51:15.935Z,993.60
2017-11-26T03:52:15.903Z,993.57
2017-11-26T03:53:15.874Z,993.55
2017-11-26T03:54:15.858Z,993.62
2017-11-26T03:55:15.825Z,993.64
2017-11-26T03:56:15.805Z,993.70
2017-11-26T03:57:15.783Z,993.68
2017-11-26T03:58:15.753Z,993.69
2017-11-26T03:59:15.760Z,993.69
2017-11-26T04:00:30.346Z,993.67
2017-11-26T04:01:15.678Z,993.72
2017-11-26T04:02:15.651Z,993.74
2017-11-26T04:03:15.628Z,993.75
2017-11-26T04:04:15.601Z,993.70
2017-11-26T04:05:15.583Z,993.70
2017-11-26T04:06:15.553Z,993.79
2017-11-26T04:07:15.535Z,993.75
2017-11-26T04:08:15.504Z,993.81
2017-11-26T04:09:15.478Z,993.73
2017-11-26T04:10:15.456Z,993.75
2017-11-26T04:11:15.429Z,993.81
2017-11-26T04:12:15.410Z,993.75
2017-11-26T04:13:15.379Z,993.78
2017-11-26T04:14:15.361Z,993.76
2017-11-26T04:15:15.333Z,993.73
2017-11-26T04:16:15.307Z,993.77
2017-11-26T04:17:15.282Z,993.80
2017-11-26T04:18:15.253Z,993.83
2017-11-26T04:19:15.231Z,993.83
2017-11-26T04:20:15.208Z,993.81
2017-11-26T04:21:15.181Z,993.82
2017-11-26T04:22:15.159Z,993.87
2017-11-26T04:23:15.132Z,993.88
2017-11-26T04:24:15.105Z,993.92
2017-11-26T04:25:15.087Z,993.92
2017-11-26T04:26:15.061Z,993.91
2017-11-26T04:27:15.030Z,993.89
2017-11-26T04:28:15.058Z,993.88
2017-11-26T04:29:14.987Z,993.87
2017-11-26T04:30:14.961Z,993.91
2017-11-26T04:31:14.934Z,993.91
2017-11-26T04:32:14.907Z,993.92
2017-11-26T04:33:14.879Z,993.92
2017-11-26T04:34:14.862Z,993.93
2017-11-26T04:35:14.833Z,993.93
2017-11-26T04:36:14.806Z,993.93
2017-11-26T04:37:14.811Z,993.95
2017-11-26T04:38:14.757Z,993.94
2017-11-26T04:39:14.732Z,993.93
2017-11-26T04:40:14.705Z,993.98
2017-11-26T04:41:14.683Z,993.96
2017-11-26T04:42:14.661Z,993.92
2017-11-26T04:43:14.630Z,993.97
2017-11-26T04:44:14.605Z,993.96
2017-11-26T04:45:14.585Z,993.95
2017-11-26T04:46:14.556Z,993.95
2017-11-26T04:47:14.536Z,993.93
2017-11-26T04:48:14.513Z,993.92
2017-11-26T04:49:14.484Z,993.90
2017-11-26T04:50:14.471Z,993.88
2017-11-26T04:51:14.430Z,993.87
2017-11-26T04:52:14.410Z,993.85
2017-11-26T04:53:14.382Z,993.84
2017-11-26T04:54:14.357Z,993.84
2017-11-26T04:55:14.333Z,993.86
2017-11-26T04:56:14.309Z,993.80
2017-11-26T04:57:14.281Z,993.82
2017-11-26T04:58:14.259Z,993.83
2017-11-26T04:59:14.232Z,993.78
2017-11-26T05:00:14.209Z,993.87
2017-11-26T05:01:14.182Z,993.82
2017-11-26T05:02:14.154Z,993.86
2017-11-26T05:03:14.132Z,993.85
2017-11-26T05:04:14.106Z,993.81
2017-11-26T05:05:14.088Z,993.80
2017-11-26T05:06:14.062Z,993.80
2017-11-26T05:07:14.030Z,993.81
2017-11-26T05:08:14.004Z,993.84
2017-11-26T05:09:13.984Z,993.85
2017-11-26T05:10:13.957Z,993.87
2017-11-26T05:11:13.931Z,993.84
2017-11-26T05:12:13.905Z,993.85
2017-11-26T05:13:13.922Z,993.87
2017-11-26T05:14:13.907Z,993.87
2017-11-26T05:15:13.829Z,993.91
2017-11-26T05:16:13.810Z,993.89
2017-11-26T05:17:13.788Z,993.87
2017-11-26T05:18:13.756Z,993.89
2017-11-26T05:19:13.734Z,993.87
2017-11-26T05:20:13.709Z,993.84
2017-11-26T05:21:13.683Z,993.83
2017-11-26T05:22:13.666Z,993.83
2017-11-26T05:23:13.631Z,993.86
2017-11-26T05:24:13.609Z,993.89
2017-11-26T05:25:13.590Z,993.94
2017-11-26T05:26:13.561Z,993.94
2017-11-26T05:27:13.532Z,993.92
2017-11-26T05:28:13.507Z,993.91
2017-11-26T05:29:13.484Z,993.94
2017-11-26T05:30:13.458Z,993.93
2017-11-26T05:31:13.444Z,993.93
2017-11-26T05:32:13.409Z,994.00
2017-11-26T05:33:13.384Z,994.00
2017-11-26T05:34:13.357Z,994.06
2017-11-26T05:35:13.335Z,994.03
2017-11-26T05:36:13.310Z,994.05
2017-11-26T05:37:13.294Z,994.05
2017-11-26T05:38:13.265Z,994.06
2017-11-26T05:39:13.234Z,994.04
2017-11-26T05:40:13.224Z,994.00
2017-11-26T05:41:13.190Z,994.00
2017-11-26T05:42:13.161Z,994.01
2017-11-26T05:43:13.142Z,994.02
2017-11-26T05:44:13.109Z,994.00
2017-11-26T05:45:13.085Z,994.02
2017-11-26T05:46:13.062Z,994.05
2017-11-26T05:47:13.034Z,994.04
2017-11-26T05:48:13.014Z,994.03
2017-11-26T05:49:12.992Z,994.02
2017-11-26T05:50:12.965Z,994.06
2017-11-26T05:51:12.972Z,994.03
2017-11-26T05:52:12.922Z,994.06
2017-11-26T05:53:12.886Z,994.04
2017-11-26T05:54:12.865Z,994.08
2017-11-26T05:55:12.846Z,994.11
2017-11-26T05:56:12.819Z,994.07
2017-11-26T05:57:12.791Z,994.10
2017-11-26T05:58:12.763Z,994.07
2017-11-26T05:59:12.740Z,994.08
2017-11-26T06:00:12.711Z,994.09
2017-11-26T06:01:12.687Z,994.15
2017-11-26T06:02:12.662Z,994.13
2017-11-26T06:03:12.645Z,994.13
2017-11-26T06:04:12.612Z,994.15
2017-11-26T06:05:12.588Z,994.15
2017-11-26T06:06:12.564Z,994.15
2017-11-26T06:07:12.545Z,994.13
2017-11-26T06:08:12.529Z,994.14
2017-11-26T06:09:12.492Z,994.14
2017-11-26T06:10:12.464Z,994.13
2017-11-26T06:11:12.440Z,994.13
2017-11-26T06:12:12.413Z,994.19
2017-11-26T06:13:12.393Z,994.21
2017-11-26T06:14:12.370Z,994.23
2017-11-26T06:15:12.339Z,994.22
2017-11-26T06:16:12.317Z,994.27
2017-11-26T06:17:12.292Z,994.28
2017-11-26T06:18:12.263Z,994.29
2017-11-26T06:19:12.241Z,994.27
2017-11-26T06:20:12.227Z,994.28
2017-11-26T06:21:12.198Z,994.31
2017-11-26T06:22:12.163Z,994.28
2017-11-26T06:23:12.144Z,994.28
2017-11-26T06:24:12.124Z,994.27
2017-11-26T06:25:12.090Z,994.29
2017-11-26T06:26:12.104Z,994.21
2017-11-26T06:27:12.057Z,994.24
2017-11-26T06:28:12.062Z,994.23
2017-11-26T06:29:11.995Z,994.28
2017-11-26T06:30:11.966Z,994.26
2017-11-26T06:31:47.870Z,994.29
2017-11-26T06:32:11.917Z,994.27
2017-11-26T06:33:11.891Z,994.25
2017-11-26T06:34:11.867Z,994.27
2017-11-26T06:35:11.839Z,994.26
2017-11-26T06:36:11.817Z,994.33
2017-11-26T06:37:11.797Z,994.32
2017-11-26T06:38:11.763Z,994.34
2017-11-26T06:39:11.739Z,994.40
2017-11-26T06:40:11.718Z,994.40
2017-11-26T06:41:11.695Z,994.39
2017-11-26T06:42:11.664Z,994.36
2017-11-26T06:43:11.644Z,994.34
2017-11-26T06:44:11.616Z,994.38
2017-11-26T06:45:11.591Z,994.42
2017-11-26T06:46:11.567Z,994.38
2017-11-26T06:47:11.548Z,994.36
2017-11-26T06:48:11.519Z,994.40
2017-11-26T06:49:11.491Z,994.39
2017-11-26T06:50:11.466Z,994.37
2017-11-26T06:51:11.441Z,994.40
2017-11-26T06:52:11.419Z,994.38
2017-11-26T06:53:11.396Z,994.39
2017-11-26T06:54:11.368Z,994.39
2017-11-26T06:55:11.345Z,994.37
2017-11-26T06:56:11.317Z,994.38
2017-11-26T06:57:11.296Z,994.36
2017-11-26T06:58:11.271Z,994.35
2017-11-26T06:59:11.252Z,994.37
2017-11-26T07:00:11.219Z,994.38
2017-11-26T07:01:11.197Z,994.43
2017-11-26T07:02:11.169Z,994.44
2017-11-26T07:03:11.145Z,994.48
2017-11-26T07:04:11.123Z,994.49
2017-11-26T07:05:11.150Z,994.55
2017-11-26T07:06:11.071Z,994.57
2017-11-26T07:07:11.043Z,994.59
2017-11-26T07:08:11.023Z,994.59
2017-11-26T07:09:10.993Z,994.59
2017-11-26T07:10:10.969Z,994.56
2017-11-26T07:11:10.944Z,994.62
2017-11-26T07:12:10.919Z,994.66
2017-11-26T07:13:10.898Z,994.73
2017-11-26T07:14:10.870Z,994.79
2017-11-26T07:15:10.850Z,994.79
2017-11-26T07:16:10.818Z,994.76
2017-11-26T07:17:10.797Z,994.77
2017-11-26T07:18:10.769Z,994.78
2017-11-26T07:19:10.742Z,994.85
2017-11-26T07:20:10.718Z,994.81
2017-11-26T07:21:10.697Z,994.87
2017-11-26T07:22:10.684Z,994.85
2017-11-26T07:23:10.646Z,994.84
2017-11-26T07:24:10.623Z,994.83
2017-11-26T07:25:10.596Z,994.86
2017-11-26T07:26:10.571Z,994.86
2017-11-26T07:27:10.545Z,994.79
2017-11-26T07:28:10.522Z,994.81
2017-11-26T07:29:10.499Z,994.83
2017-11-26T07:30:10.471Z,994.82
2017-11-26T07:31:10.451Z,994.82
2017-11-26T07:32:10.416Z,994.83
2017-11-26T07:33:10.395Z,994.79
2017-11-26T07:34:10.371Z,994.86
2017-11-26T07:35:10.355Z,994.84
2017-11-26T07:36:10.326Z,994.82
2017-11-26T07:37:10.298Z,994.79
2017-11-26T07:38:10.284Z,994.80
2017-11-26T07:39:10.249Z,994.83
2017-11-26T07:40:10.249Z,994.85
2017-11-26T07:41:10.202Z,994.82
2017-11-26T07:42:10.210Z,994.83
2017-11-26T07:43:10.143Z,994.80
2017-11-26T07:44:10.121Z,994.86
2017-11-26T07:45:10.143Z,994.85
2017-11-26T07:46:10.083Z,994.88
2017-11-26T07:47:10.045Z,994.85
2017-11-26T07:48:10.018Z,994.88
2017-11-26T07:49:09.997Z,994.89
2017-11-26T07:50:09.970Z,994.91
2017-11-26T07:51:09.949Z,994.92
2017-11-26T07:52:09.919Z,994.97
2017-11-26T07:53:09.897Z,994.97
2017-11-26T07:54:09.891Z,994.95
2017-11-26T07:55:09.857Z,994.99
2017-11-26T07:56:09.826Z,994.95
2017-11-26T07:57:09.801Z,994.97
2017-11-26T07:58:09.776Z,995.03
2017-11-26T07:59:09.752Z,995.00
2017-11-26T08:00:09.727Z,994.99
2017-11-26T08:01:09.705Z,995.03
2017-11-26T08:02:30.675Z,995.02
2017-11-26T08:03:09.647Z,995.01
2017-11-26T08:04:09.632Z,995.08
2017-11-26T08:05:09.601Z,995.08
2017-11-26T08:06:09.578Z,995.07
2017-11-26T08:07:09.553Z,995.10
2017-11-26T08:08:09.539Z,995.10
2017-11-26T08:09:09.502Z,995.14
2017-11-26T08:10:09.477Z,995.15
2017-11-26T08:11:09.451Z,995.17
2017-11-26T08:12:09.426Z,995.18
2017-11-26T08:13:09.404Z,995.20
2017-11-26T08:14:09.381Z,995.16
2017-11-26T08:15:09.355Z,995.18
2017-11-26T08:16:09.328Z,995.22
2017-11-26T08:17:09.306Z,995.19
2017-11-26T08:18:09.282Z,995.20
2017-11-26T08:19:09.299Z,995.22
2017-11-26T08:20:09.234Z,995.24
2017-11-26T08:21:09.210Z,995.22
2017-11-26T08:22:09.193Z,995.26
2017-11-26T08:23:09.157Z,995.22
2017-11-26T08:24:09.133Z,995.22
2017-11-26T08:25:09.114Z,995.18
2017-11-26T08:26:09.083Z,995.24
2017-11-26T08:27:09.063Z,995.25
2017-11-26T08:28:09.042Z,995.18
2017-11-26T08:29:09.009Z,995.18
2017-11-26T08:30:08.993Z,995.17
2017-11-26T08:31:08.957Z,995.20
2017-11-26T08:32:08.937Z,995.24
2017-11-26T08:33:08.915Z,995.21
2017-11-26T08:34:08.884Z,995.17
2017-11-26T08:35:08.862Z,995.22
2017-11-26T08:36:08.837Z,995.19
2017-11-26T08:37:08.814Z,995.22
2017-11-26T08:38:08.788Z,995.20
2017-11-26T08:39:08.762Z,995.25
2017-11-26T08:40:08.752Z,995.29
2017-11-26T08:41:08.717Z,995.26
2017-11-26T08:42:08.696Z,995.26
2017-11-26T08:43:08.671Z,995.24
2017-11-26T08:44:08.639Z,995.29
2017-11-26T08:45:08.615Z,995.23
2017-11-26T08:46:08.594Z,995.25
2017-11-26T08:47:08.570Z,995.21
2017-11-26T08:48:08.542Z,995.18
2017-11-26T08:49:08.521Z,995.15
2017-11-26T08:50:08.491Z,995.21
2017-11-26T08:51:08.476Z,995.13
2017-11-26T08:52:08.444Z,995.17
2017-11-26T08:53:08.422Z,995.13
2017-11-26T08:54:08.397Z,995.05
2017-11-26T08:55:08.380Z,995.08
2017-11-26T08:56:08.389Z,995.06
2017-11-26T08:57:08.336Z,995.06
2017-11-26T08:58:08.296Z,995.05
2017-11-26T08:59:08.281Z,995.05
2017-11-26T09:00:08.250Z,995.09
2017-11-26T09:01:08.235Z,995.11
2017-11-26T09:02:08.202Z,995.07
2017-11-26T09:03:08.179Z,995.06
2017-11-26T09:04:08.160Z,995.08
2017-11-26T09:05:08.128Z,995.12
2017-11-26T09:06:08.104Z,995.07
2017-11-26T09:07:08.078Z,995.09
2017-11-26T09:08:08.054Z,995.16
2017-11-26T09:09:08.035Z,995.13
2017-11-26T09:10:08.006Z,995.14
2017-11-26T09:11:07.980Z,995.17
2017-11-26T09:12:07.958Z,995.21
2017-11-26T09:13:07.937Z,995.16
2017-11-26T09:14:07.910Z,995.13
2017-11-26T09:15:07.885Z,995.23
2017-11-26T09:16:07.860Z,995.24
2017-11-26T09:17:07.844Z,995.24
2017-11-26T09:18:07.815Z,995.27
2017-11-26T09:19:07.805Z,995.24
2017-11-26T09:20:07.770Z,995.30
2017-11-26T09:21:07.737Z,995.30
2017-11-26T09:22:07.720Z,995.29
2017-11-26T09:23:07.689Z,995.30
2017-11-26T09:24:07.667Z,995.29
2017-11-26T09:25:07.641Z,995.31
2017-11-26T09:26:07.620Z,995.30
2017-11-26T09:27:07.600Z,995.39
2017-11-26T09:28:07.565Z,995.33
2017-11-26T09:29:07.553Z,995.31
2017-11-26T09:30:07.520Z,995.36
2017-11-26T09:31:07.501Z,995.40
2017-11-26T09:32:07.494Z,995.38
2017-11-26T09:34:39.775Z,995.38
2017-11-26T09:35:39.729Z,995.39
2017-11-26T09:37:33.140Z,995.30
2017-11-26T09:38:33.095Z,995.34
2017-11-26T09:40:28.968Z,995.39
2017-11-26T09:41:28.923Z,995.44
2017-11-26T09:42:28.903Z,995.37
2017-11-26T09:43:28.873Z,995.41
2017-11-26T09:44:28.849Z,995.40
2017-11-26T09:45:28.829Z,995.40
2017-11-26T09:46:28.804Z,995.41
2017-11-26T09:47:28.780Z,995.41
2017-11-26T09:48:28.753Z,995.41
2017-11-26T09:49:28.726Z,995.41
2017-11-26T09:50:28.709Z,995.49
2017-11-26T09:51:28.688Z,995.44
2017-11-26T09:52:28.659Z,995.36
2017-11-26T09:53:28.634Z,995.37
2017-11-26T09:54:28.625Z,995.39
2017-11-26T09:55:28.583Z,995.40
2017-11-26T09:56:28.559Z,995.43
2017-11-26T09:57:28.546Z,995.44
2017-11-26T09:58:28.516Z,995.46
2017-11-26T09:59:28.530Z,995.40
2017-11-26T10:00:28.463Z,995.46
2017-11-26T10:01:28.437Z,995.41
2017-11-26T10:02:28.421Z,995.37
2017-11-26T10:03:28.394Z,995.35
2017-11-26T10:04:28.383Z,995.30
2017-11-26T10:05:28.343Z,995.38
2017-11-26T10:06:28.327Z,995.35
2017-11-26T10:07:28.302Z,995.31
2017-11-26T10:08:28.272Z,995.31
2017-11-26T10:09:28.245Z,995.31
2017-11-26T10:10:28.227Z,995.36
2017-11-26T10:11:28.203Z,995.33
2017-11-26T10:12:28.185Z,995.32
2017-11-26T10:13:28.157Z,995.29
2017-11-26T10:14:28.127Z,995.24
2017-11-26T10:15:28.107Z,995.30
2017-11-26T10:16:28.081Z,995.28
2017-11-26T10:17:28.070Z,995.38
2017-11-26T10:18:28.031Z,995.32
2017-11-26T10:19:28.010Z,995.43
2017-11-26T10:20:27.983Z,995.35
2017-11-26T10:21:27.966Z,995.33
2017-11-26T10:22:27.951Z,995.25
2017-11-26T10:23:27.916Z,995.34
2017-11-26T10:24:27.902Z,995.34
2017-11-26T10:25:27.871Z,995.31
2017-11-26T10:26:27.847Z,995.30
2017-11-26T10:27:27.820Z,995.29
2017-11-26T10:28:27.801Z,995.42
2017-11-26T10:29:27.782Z,995.37
2017-11-26T10:30:27.749Z,995.44
2017-11-26T10:31:27.724Z,995.38
2017-11-26T10:32:27.698Z,995.38
2017-11-26T10:33:27.679Z,995.37
2017-11-26T10:34:27.656Z,995.36
2017-11-26T10:35:27.634Z,995.45
2017-11-26T10:36:27.607Z,995.58
2017-11-26T10:37:27.583Z,995.35
2017-11-26T10:38:27.603Z,995.44
2017-11-26T10:39:27.540Z,995.33
2017-11-26T10:40:27.512Z,995.32
2017-11-26T10:41:27.495Z,995.43
2017-11-26T10:42:27.485Z,995.32
2017-11-26T10:43:27.445Z,995.40
2017-11-26T10:44:27.421Z,995.37
2017-11-26T10:45:27.399Z,995.42
2017-11-26T10:46:27.375Z,995.29
2017-11-26T10:47:27.353Z,995.29
2017-11-26T10:48:27.327Z,995.32
2017-11-26T10:49:27.308Z,995.33
2017-11-26T10:50:27.278Z,995.32
2017-11-26T10:51:27.274Z,995.36
2017-11-26T10:52:27.234Z,995.27
2017-11-26T10:53:27.217Z,995.25
2017-11-26T10:54:27.205Z,995.18
2017-11-26T10:55:27.164Z,995.16
2017-11-26T10:56:27.145Z,995.24
2017-11-26T10:57:27.121Z,995.23
2017-11-26T10:58:27.095Z,995.28
2017-11-26T10:59:27.071Z,995.20
2017-11-26T11:00:27.043Z,995.27
2017-11-26T11:01:27.030Z,995.27
2017-11-26T11:02:26.998Z,995.18
2017-11-26T11:03:26.977Z,995.26
2017-11-26T11:04:26.957Z,995.27
2017-11-26T11:05:26.930Z,995.32
2017-11-26T11:06:26.906Z,995.16
2017-11-26T11:07:26.886Z,995.26
2017-11-26T11:08:26.860Z,995.32
2017-11-26T11:09:26.839Z,995.25
2017-11-26T11:10:26.834Z,995.32
2017-11-26T11:11:26.791Z,995.35
2017-11-26T11:12:26.810Z,995.36
2017-11-26T11:13:26.748Z,995.31
2017-11-26T11:14:26.741Z,995.46
2017-11-26T11:15:26.704Z,995.38
2017-11-26T11:16:26.686Z,995.34
2017-11-26T11:17:26.706Z,995.34
2017-11-26T11:18:26.629Z,995.36
2017-11-26T11:19:26.604Z,995.39
2017-11-26T11:20:26.581Z,995.42
2017-11-26T11:21:26.563Z,995.42
2017-11-26T11:22:26.533Z,995.44
2017-11-26T11:23:26.513Z,995.47
2017-11-26T11:24:26.487Z,995.40
2017-11-26T11:25:26.468Z,995.39
2017-11-26T11:26:26.443Z,995.36
2017-11-26T11:27:26.422Z,995.37
2017-11-26T11:28:26.393Z,995.41
2017-11-26T11:29:26.389Z,995.41
2017-11-26T11:30:26.347Z,995.47
2017-11-26T11:31:26.327Z,995.50
2017-11-26T11:32:26.306Z,995.36
2017-11-26T11:33:26.286Z,995.41
2017-11-26T11:34:26.254Z,995.41
2017-11-26T11:35:26.242Z,995.54
2017-11-26T11:36:26.207Z,995.47
2017-11-26T11:37:26.186Z,995.50
2017-11-26T11:38:26.172Z,995.56
2017-11-26T11:39:26.171Z,995.46
2017-11-26T11:40:26.115Z,995.43
2017-11-26T11:41:26.094Z,995.43
2017-11-26T11:42:26.088Z,995.48
2017-11-26T11:43:26.067Z,995.55
2017-11-26T11:44:26.025Z,995.42
2017-11-26T11:45:26.012Z,995.45
2017-11-26T11:46:25.975Z,995.57
2017-11-26T11:47:25.952Z,995.26
2017-11-26T11:48:25.928Z,995.36
2017-11-26T11:49:25.902Z,995.39
2017-11-26T11:50:25.880Z,995.40
2017-11-26T11:51:25.858Z,995.38
2017-11-26T11:52:25.836Z,995.41
2017-11-26T11:53:25.816Z,995.40
2017-11-26T11:54:25.810Z,995.38
2017-11-26T11:55:25.772Z,995.41
2017-11-26T11:56:25.777Z,995.35
2017-11-26T11:57:25.714Z,995.29
2017-11-26T11:58:25.693Z,995.54
2017-11-26T11:59:25.675Z,995.33
2017-11-26T12:00:25.644Z,995.31
2017-11-26T12:01:25.620Z,995.28
2017-11-26T12:02:25.594Z,995.33
2017-11-26T12:03:25.579Z,995.37
2017-11-26T12:04:25.549Z,995.30
2017-11-26T12:05:25.523Z,995.31
2017-11-26T12:06:25.503Z,995.34
2017-11-26T12:07:25.477Z,995.42
2017-11-26T12:08:25.455Z,995.43
2017-11-26T12:09:25.429Z,995.41
2017-11-26T12:10:28.022Z,995.27
2017-11-26T12:11:25.384Z,995.32
2017-11-26T12:12:25.357Z,995.31
2017-11-26T12:13:25.340Z,995.28
2017-11-26T12:14:25.314Z,995.33
2017-11-26T12:15:25.288Z,995.27
2017-11-26T12:16:25.272Z,995.30
2017-11-26T12:17:25.239Z,995.27
2017-11-26T12:18:25.215Z,995.30
2017-11-26T12:19:25.189Z,995.28
2017-11-26T12:20:25.170Z,995.22
2017-11-26T12:21:25.151Z,995.17
2017-11-26T12:22:25.117Z,995.23
2017-11-26T12:23:25.106Z,995.22
2017-11-26T12:24:25.074Z,995.35
2017-11-26T12:25:25.053Z,995.18
2017-11-26T12:26:25.025Z,995.28
2017-11-26T12:27:25.002Z,995.22
2017-11-26T12:28:24.979Z,995.22
2017-11-26T12:29:24.954Z,995.25
2017-11-26T12:30:24.929Z,995.25
2017-11-26T12:31:24.908Z,995.21